Los Angeles, California
Traffic Map
Current Weather Conditions
Los Angeles, California
Overcast
Overcast
19°
Feels Like: 19°
Wind Chill: 19° Ceiling: 2100
Heat Index: 19° Visibility: 10mi
Dew Point: 14° Wind: 0mph
Humidity: 73% Direction: ° ()
Pressure: 29.93in Gusts: 0mph
Raw Report DataKCQT 261247Z AUTO 00000KT 10SM OVC021 19/14 A2993 RMK AO2 SLP131 T01890139 $
Traffic Incident Summary
Active as of:
Severity:
Category:
InformationThere was an issue retrieving the traffic information for this location. Please try a different location or try again shortly.
Advertisements
Track Severe Weather on mobile